Arian — V2FM3 — position and weather

sailwx.info

Track history (hours):
 
Tides and Currents Weather Stations Pressure Air Temp Water Temp Dewpoint Dewpoint Depression Visibility Wind Speed Wind Dir Waves Ship Positions

Arian

Last reported at 2018-Jun-24 18:30 UTC. Time now 2018-Jun-24 18:41 UTC.
Position N 40°40' W 074°09'.

Length 161 m; draft 7.5 m.

Type: Ship (hazmat cat A). MMSI: 305720000.

Date/timePositionNaut miles runAvg speedWind from/ knotsBaromVisibWave heightAir tempDewpointWater temp
2018-Jun-24 18:30N 40°40' W 074°09'0 0.0
2018-Jun-24 18:00N 40°40' W 074°09'0 0.1
2018-Jun-24 17:30N 40°40' W 074°09'1 2.9
2018-Jun-24 17:00N 40°39' W 074°09'3 7.0
2018-Jun-24 16:30N 40°39' W 074°04'3 5.7
2018-Jun-24 16:00N 40°36' W 074°03'5 9.3
2018-Jun-24 15:30N 40°32' W 074°01'611.6
2018-Jun-24 14:59N 40°29' W 073°54'32313.1
2018-Jun-23 14:18N 41°34' W 066°54'516.0
2018-Jun-23 14:00N 41°38' W 066°54'815.8
2018-Jun-23 13:31N 41°46' W 066°54'815.6
2018-Jun-23 13:00N 41°54' W 066°54'915.1
2018-Jun-23 12:25N 42°03' W 066°54'914.6
2018-Jun-23 11:46N 42°12' W 066°55'514.9
2018-Jun-23 11:25N 42°18' W 066°55'1515.2
2018-Jun-23 10:24N 42°33' W 066°55'814.4
2018-Jun-23 09:52N 42°41' W 066°55'1114.2
2018-Jun-23 09:07N 42°51' W 066°55'214.7
2018-Jun-23 09:00N 42°53' W 066°54'714.7
2018-Jun-23 08:30N 43°01' W 066°55'714.7
2018-Jun-23 08:01N 43°08' W 066°54'714.7
2018-Jun-23 07:30N 43°15' W 066°54'815.4
2018-Jun-23 07:01N 43°23' W 066°54'815.3
2018-Jun-23 06:30N 43°30' W 066°54'714.6
2018-Jun-23 06:00N 43°38' W 066°54'815.4
2018-Jun-23 05:30N 43°46' W 066°54'815.5
2018-Jun-23 05:00N 43°53' W 066°54'815.5
2018-Jun-23 04:30N 44°01' W 066°54'816.4
2018-Jun-23 04:00N 44°09' W 066°54'714.8
2018-Jun-23 03:30N 44°16' W 066°52'  
Track history (hours):
 
Tides and Currents Weather Stations Pressure Air Temp Water Temp Dewpoint Dewpoint Depression Visibility Wind Speed Wind Dir Waves Ship Positions

Arian

Last reported at 2018-Jun-24 18:30 UTC. Time now 2018-Jun-24 18:41 UTC.
Position N 40°40' W 074°09'.

Length 161 m; draft 7.5 m.

Type: Ship (hazmat cat A). MMSI: 305720000.

Date/timePositionNaut miles runAvg speedWind from/ knotsBaromVisibWave heightAir tempDewpointWater temp
2018-Jun-24 18:30N 40°40' W 074°09'0 0.0
2018-Jun-24 18:00N 40°40' W 074°09'0 0.1
2018-Jun-24 17:30N 40°40' W 074°09'1 2.9
2018-Jun-24 17:00N 40°39' W 074°09'3 7.0
2018-Jun-24 16:30N 40°39' W 074°04'3 5.7
2018-Jun-24 16:00N 40°36' W 074°03'5 9.3
2018-Jun-24 15:30N 40°32' W 074°01'611.6
2018-Jun-24 14:59N 40°29' W 073°54'32313.1
2018-Jun-23 14:18N 41°34' W 066°54'516.0
2018-Jun-23 14:00N 41°38' W 066°54'815.8
2018-Jun-23 13:31N 41°46' W 066°54'815.6
2018-Jun-23 13:00N 41°54' W 066°54'915.1
2018-Jun-23 12:25N 42°03' W 066°54'914.6
2018-Jun-23 11:46N 42°12' W 066°55'514.9
2018-Jun-23 11:25N 42°18' W 066°55'1515.2
2018-Jun-23 10:24N 42°33' W 066°55'814.4
2018-Jun-23 09:52N 42°41' W 066°55'1114.2
2018-Jun-23 09:07N 42°51' W 066°55'214.7
2018-Jun-23 09:00N 42°53' W 066°54'714.7
2018-Jun-23 08:30N 43°01' W 066°55'714.7
2018-Jun-23 08:01N 43°08' W 066°54'714.7
2018-Jun-23 07:30N 43°15' W 066°54'815.4
2018-Jun-23 07:01N 43°23' W 066°54'815.3
2018-Jun-23 06:30N 43°30' W 066°54'714.6
2018-Jun-23 06:00N 43°38' W 066°54'815.4
2018-Jun-23 05:30N 43°46' W 066°54'815.5
2018-Jun-23 05:00N 43°53' W 066°54'815.5
2018-Jun-23 04:30N 44°01' W 066°54'816.4
2018-Jun-23 04:00N 44°09' W 066°54'714.8
2018-Jun-23 03:30N 44°16' W 066°52'  

Dump ship's entire track history